createdAt,value
2019-03-26T00:00:20.034Z,19.67
2019-03-26T00:02:48.811Z,16.67
2019-03-26T00:05:17.316Z,22.87
2019-03-26T00:07:47.539Z,19.07
2019-03-26T00:10:16.159Z,22.77
2019-03-26T00:12:44.407Z,27.87
2019-03-26T00:15:12.647Z,19.37
2019-03-26T00:17:40.914Z,21.97
2019-03-26T00:20:09.240Z,26.03
2019-03-26T00:22:37.925Z,15.87
2019-03-26T00:25:06.674Z,25.90
2019-03-26T00:27:35.179Z,26.60
2019-03-26T00:30:03.435Z,18.93
2019-03-26T00:32:31.699Z,22.87
2019-03-26T00:34:59.930Z,23.50
2019-03-26T00:37:28.175Z,13.10
2019-03-26T00:39:57.503Z,14.10
2019-03-26T00:42:25.730Z,25.20
2019-03-26T00:44:54.006Z,22.00
2019-03-26T00:47:22.397Z,24.10
2019-03-26T00:49:50.633Z,20.17
2019-03-26T00:52:18.871Z,20.57
2019-03-26T00:54:47.223Z,22.03
2019-03-26T00:57:15.451Z,24.37
2019-03-26T00:59:43.691Z,21.87
2019-03-26T01:02:12.898Z,22.67
2019-03-26T01:04:41.479Z,19.20
2019-03-26T01:07:09.731Z,20.63
2019-03-26T01:09:38.365Z,22.67
2019-03-26T01:12:06.597Z,16.93
2019-03-26T01:14:34.885Z,23.23
2019-03-26T01:17:03.167Z,25.30
2019-03-26T01:19:33.548Z,16.17
2019-03-26T01:22:01.792Z,20.80
2019-03-26T01:24:30.593Z,17.33
2019-03-26T01:26:58.836Z,37.13
2019-03-26T01:29:27.105Z,22.77
2019-03-26T01:31:55.351Z,26.83
2019-03-26T01:34:23.586Z,29.17
2019-03-26T01:36:51.815Z,16.03
2019-03-26T01:39:20.312Z,23.97
2019-03-26T01:41:48.550Z,36.17
2019-03-26T01:44:16.788Z,22.80
2019-03-26T01:46:45.071Z,27.33
2019-03-26T01:49:14.714Z,21.50
2019-03-26T01:51:42.951Z,30.57
2019-03-26T01:54:11.240Z,27.07
2019-03-26T01:56:39.789Z,27.03
2019-03-26T01:59:08.051Z,23.80
2019-03-26T02:01:36.574Z,32.30
2019-03-26T02:04:04.816Z,28.87
2019-03-26T02:06:33.052Z,34.17
2019-03-26T02:09:01.307Z,22.10
2019-03-26T02:11:29.543Z,24.13
2019-03-26T02:13:57.775Z,30.27
2019-03-26T02:16:26.031Z,32.50
2019-03-26T02:18:54.275Z,29.20
2019-03-26T02:21:22.509Z,37.07
2019-03-26T02:23:50.787Z,29.50
2019-03-26T02:26:19.100Z,23.70
2019-03-26T02:28:47.367Z,23.33
2019-03-26T02:31:15.623Z,32.87
2019-03-26T02:33:43.888Z,28.67
2019-03-26T02:36:12.110Z,33.60
2019-03-26T02:38:41.166Z,27.80
2019-03-26T02:41:09.416Z,31.23
2019-03-26T02:43:37.676Z,21.17
2019-03-26T02:46:05.948Z,31.93
2019-03-26T02:48:34.951Z,35.00
2019-03-26T02:51:03.874Z,43.47
2019-03-26T02:53:32.123Z,24.13
2019-03-26T02:56:00.379Z,25.13
2019-03-26T02:58:31.562Z,21.87
2019-03-26T03:01:00.326Z,31.13
2019-03-26T03:03:28.556Z,34.07
2019-03-26T03:05:56.791Z,23.77
2019-03-26T03:08:25.099Z,37.43
2019-03-26T03:10:53.351Z,30.23
2019-03-26T03:13:21.899Z,26.80
2019-03-26T03:15:50.185Z,21.97
2019-03-26T03:18:18.423Z,17.23
2019-03-26T03:20:46.664Z,31.93
2019-03-26T03:23:15.216Z,33.00
2019-03-26T03:25:43.498Z,30.10
2019-03-26T03:28:11.795Z,25.77
2019-03-26T03:30:40.154Z,23.67
2019-03-26T03:33:08.396Z,31.33
2019-03-26T03:35:51.259Z,33.80
2019-03-26T03:38:07.084Z,23.77
2019-03-26T03:40:35.348Z,27.30
2019-03-26T03:43:03.676Z,24.77
2019-03-26T03:45:32.260Z,35.73
2019-03-26T03:48:00.505Z,30.40
2019-03-26T03:50:29.624Z,26.73
2019-03-26T03:52:59.591Z,25.30
2019-03-26T03:55:27.895Z,26.07
2019-03-26T03:57:58.631Z,24.67
2019-03-26T04:00:30.230Z,22.83
2019-03-26T04:02:58.464Z,22.70
2019-03-26T04:05:26.701Z,24.37
2019-03-26T04:07:54.971Z,19.90
2019-03-26T04:10:23.211Z,26.37
2019-03-26T04:12:51.765Z,24.67
2019-03-26T04:15:20.019Z,33.83
2019-03-26T04:17:48.254Z,22.53
2019-03-26T04:20:16.488Z,22.00
2019-03-26T04:22:45.090Z,32.63
2019-03-26T04:25:13.331Z,32.17
2019-03-26T04:27:41.568Z,30.47
2019-03-26T04:30:11.876Z,25.57
2019-03-26T04:32:40.441Z,23.73
2019-03-26T04:35:08.677Z,18.87
2019-03-26T04:37:37.326Z,33.83
2019-03-26T04:40:06.031Z,24.03
2019-03-26T04:42:34.350Z,22.60
2019-03-26T04:45:02.627Z,22.20
2019-03-26T04:47:30.859Z,25.80
2019-03-26T04:49:59.100Z,24.67
2019-03-26T04:52:28.003Z,27.57
2019-03-26T04:54:56.247Z,35.23
2019-03-26T04:57:24.488Z,32.50
2019-03-26T04:59:52.749Z,18.57
2019-03-26T05:02:20.987Z,22.03
2019-03-26T05:04:49.227Z,33.50
2019-03-26T05:07:17.836Z,38.63
2019-03-26T05:09:46.075Z,21.53
2019-03-26T05:12:14.311Z,28.77
2019-03-26T05:14:42.647Z,31.13
2019-03-26T05:17:10.882Z,22.90
2019-03-26T05:19:39.118Z,25.67
2019-03-26T05:22:07.697Z,24.83
2019-03-26T05:24:35.943Z,22.13
2019-03-26T05:27:04.185Z,24.90
2019-03-26T05:29:32.567Z,20.50
2019-03-26T05:32:00.812Z,31.63
2019-03-26T05:34:29.051Z,26.90
2019-03-26T05:36:57.319Z,15.07
2019-03-26T05:39:25.560Z,25.37
2019-03-26T05:41:53.800Z,18.90
2019-03-26T05:44:22.047Z,29.30
2019-03-26T05:46:50.302Z,109.40
2019-03-26T05:49:18.535Z,23.37
2019-03-26T05:51:47.151Z,20.90
2019-03-26T05:54:17.304Z,24.13
2019-03-26T05:56:45.547Z,22.17
2019-03-26T05:59:13.880Z,22.80
2019-03-26T06:01:42.122Z,18.97
2019-03-26T06:04:10.362Z,21.73
2019-03-26T06:06:38.642Z,21.83
2019-03-26T06:09:06.890Z,17.80
2019-03-26T06:11:35.134Z,14.60
2019-03-26T06:14:03.387Z,25.70
2019-03-26T06:16:38.375Z,16.90
2019-03-26T06:19:01.593Z,23.03
2019-03-26T06:21:29.855Z,19.80
2019-03-26T06:23:58.095Z,19.43
2019-03-26T06:26:26.343Z,20.67
2019-03-26T06:28:54.848Z,15.53
2019-03-26T06:31:23.439Z,23.80
2019-03-26T06:33:51.683Z,21.10
2019-03-26T06:36:20.295Z,11.00
2019-03-26T06:38:48.534Z,25.83
2019-03-26T06:41:16.780Z,15.47
2019-03-26T06:43:45.120Z,24.37
2019-03-26T06:46:13.346Z,25.73
2019-03-26T06:48:41.650Z,19.70
2019-03-26T06:51:09.920Z,19.00
2019-03-26T06:53:38.161Z,18.87
2019-03-26T06:56:06.730Z,17.00
2019-03-26T06:58:34.992Z,15.50
2019-03-26T07:01:03.230Z,19.83
2019-03-26T07:03:31.475Z,14.50
2019-03-26T07:06:00.016Z,23.80
2019-03-26T07:08:28.257Z,26.43
2019-03-26T07:10:56.512Z,18.90
2019-03-26T07:13:24.782Z,17.87
2019-03-26T07:15:53.014Z,20.27
2019-03-26T07:18:21.252Z,23.33
2019-03-26T07:20:49.804Z,12.43
2019-03-26T07:23:18.055Z,21.80
2019-03-26T07:25:46.307Z,14.83
2019-03-26T07:28:14.895Z,23.07
2019-03-26T07:30:44.178Z,26.27
2019-03-26T07:33:12.432Z,21.10
2019-03-26T07:35:40.803Z,11.43
2019-03-26T07:38:09.043Z,20.00
2019-03-26T07:40:37.288Z,20.90
2019-03-26T07:43:05.549Z,14.67
2019-03-26T07:45:33.787Z,18.80
2019-03-26T07:48:02.038Z,20.87
2019-03-26T07:50:30.307Z,26.07
2019-03-26T07:52:58.548Z,16.10
2019-03-26T07:55:26.783Z,24.87
2019-03-26T07:57:56.095Z,27.87
2019-03-26T08:00:37.254Z,20.57
2019-03-26T08:03:05.947Z,19.47
2019-03-26T08:05:34.193Z,13.73
2019-03-26T08:08:02.432Z,14.90
2019-03-26T08:10:31.371Z,17.07
2019-03-26T08:12:59.639Z,17.10
2019-03-26T08:15:27.970Z,28.50
2019-03-26T08:17:56.370Z,18.17
2019-03-26T08:20:25.013Z,21.13
2019-03-26T08:22:53.255Z,23.57
2019-03-26T08:25:21.621Z,17.07
2019-03-26T08:27:49.864Z,22.53
2019-03-26T08:30:18.398Z,11.90
2019-03-26T08:32:47.019Z,23.50
2019-03-26T08:35:15.305Z,19.63
2019-03-26T08:37:43.556Z,24.90
2019-03-26T08:40:13.079Z,15.33
2019-03-26T08:42:42.762Z,16.43
2019-03-26T08:45:11.028Z,21.93
2019-03-26T08:47:39.718Z,17.87
2019-03-26T08:50:08.200Z,25.63
2019-03-26T08:52:36.452Z,18.10
2019-03-26T08:55:09.971Z,15.80
2019-03-26T08:57:38.226Z,12.23
2019-03-26T09:00:07.251Z,24.50
2019-03-26T09:02:35.515Z,14.07
2019-03-26T09:05:05.604Z,15.10
2019-03-26T09:07:34.411Z,22.57
2019-03-26T09:10:02.724Z,13.90
2019-03-26T09:12:30.981Z,22.00
2019-03-26T09:14:59.206Z,14.73
2019-03-26T09:17:29.317Z,17.87
2019-03-26T09:19:57.555Z,6.83
2019-03-26T09:22:25.806Z,5.13
2019-03-26T09:24:54.332Z,13.87
2019-03-26T09:27:22.619Z,10.73
2019-03-26T09:29:50.835Z,7.60
2019-03-26T09:32:19.467Z,14.90
2019-03-26T09:34:47.707Z,12.17
2019-03-26T09:37:15.966Z,10.07
2019-03-26T09:39:45.991Z,18.83
2019-03-26T09:42:14.247Z,16.10
2019-03-26T09:44:42.504Z,6.97
2019-03-26T09:47:16.315Z,13.77
2019-03-26T09:49:42.452Z,14.33
2019-03-26T09:52:10.696Z,16.33
2019-03-26T09:54:38.978Z,17.97
2019-03-26T09:59:58.023Z,14.13
2019-03-26T10:02:26.987Z,13.00
2019-03-26T10:04:55.242Z,11.47
2019-03-26T10:07:23.504Z,7.53
2019-03-26T10:09:51.757Z,9.97
2019-03-26T10:12:19.987Z,9.40
2019-03-26T10:14:48.306Z,7.17
2019-03-26T10:17:16.593Z,11.27
2019-03-26T10:19:44.826Z,11.00
2019-03-26T10:22:13.466Z,12.67
2019-03-26T10:24:41.717Z,11.90
2019-03-26T10:27:09.961Z,10.10
2019-03-26T10:29:38.272Z,11.90
2019-03-26T10:32:06.511Z,14.43
2019-03-26T10:34:36.545Z,7.53
2019-03-26T10:37:04.975Z,13.23
2019-03-26T10:39:33.222Z,11.30
2019-03-26T10:42:01.507Z,14.20
2019-03-26T10:44:29.886Z,11.77
2019-03-26T10:46:58.135Z,13.40
2019-03-26T10:49:26.393Z,8.40
2019-03-26T10:51:54.662Z,10.23
2019-03-26T10:54:22.916Z,11.67
2019-03-26T10:56:51.232Z,12.80
2019-03-26T10:59:19.507Z,13.73
2019-03-26T11:01:47.751Z,11.87
2019-03-26T11:04:16.239Z,9.60
2019-03-26T11:06:44.607Z,12.70
2019-03-26T11:09:21.298Z,15.87
2019-03-26T11:11:42.808Z,14.80
2019-03-26T11:14:11.259Z,10.73
2019-03-26T11:16:39.505Z,7.27
2019-03-26T11:19:08.102Z,10.80
2019-03-26T11:21:36.358Z,10.27
2019-03-26T11:24:04.598Z,7.30
2019-03-26T11:26:32.844Z,9.20
2019-03-26T11:29:01.130Z,8.93
2019-03-26T11:31:30.189Z,6.77
2019-03-26T11:33:58.599Z,10.07
2019-03-26T11:36:27.184Z,8.33
2019-03-26T11:38:55.438Z,5.40
2019-03-26T11:41:24.027Z,5.10
2019-03-26T11:43:52.338Z,5.63
2019-03-26T11:46:20.612Z,5.33
2019-03-26T11:48:48.896Z,5.67
2019-03-26T11:51:17.359Z,6.67
2019-03-26T11:53:45.604Z,9.97
2019-03-26T11:56:13.863Z,7.83
2019-03-26T11:58:42.174Z,9.63
2019-03-26T12:01:10.460Z,9.93
2019-03-26T12:03:38.707Z,7.73
2019-03-26T12:06:08.095Z,9.80
2019-03-26T12:08:36.323Z,9.07
2019-03-26T12:11:04.583Z,7.17
2019-03-26T12:13:32.920Z,8.87
2019-03-26T12:16:01.166Z,9.07
2019-03-26T12:18:29.426Z,7.93
2019-03-26T12:20:58.105Z,11.47
2019-03-26T12:23:26.541Z,12.17
2019-03-26T12:25:54.777Z,15.70
2019-03-26T12:28:23.043Z,8.23
2019-03-26T12:30:51.285Z,7.43
2019-03-26T12:33:19.523Z,7.37
2019-03-26T12:35:47.867Z,9.33
2019-03-26T12:38:17.550Z,8.80
2019-03-26T12:40:45.859Z,6.87
2019-03-26T12:43:14.266Z,5.33
2019-03-26T12:45:42.868Z,6.47
2019-03-26T12:48:11.148Z,7.40
2019-03-26T12:50:39.407Z,4.63
2019-03-26T12:53:07.651Z,6.87
2019-03-26T12:55:35.899Z,7.60
2019-03-26T12:58:04.699Z,5.57
2019-03-26T13:00:32.935Z,6.13
2019-03-26T13:03:01.451Z,10.80
2019-03-26T13:05:30.020Z,11.10
2019-03-26T13:07:58.655Z,34.90
2019-03-26T13:10:26.903Z,4.67
2019-03-26T13:12:55.780Z,6.20
2019-03-26T13:15:24.007Z,3.93
2019-03-26T13:17:52.251Z,10.57
2019-03-26T13:20:20.511Z,6.30
2019-03-26T13:22:48.801Z,12.13
2019-03-26T13:25:17.035Z,4.73
2019-03-26T13:27:48.635Z,5.77
2019-03-26T13:30:16.875Z,11.13
2019-03-26T13:32:46.759Z,6.13
2019-03-26T13:35:15.021Z,6.23
2019-03-26T13:37:43.315Z,7.70
2019-03-26T13:40:11.580Z,7.57
2019-03-26T13:42:39.850Z,6.63
2019-03-26T13:45:08.159Z,4.77
2019-03-26T13:47:40.684Z,4.03
2019-03-26T13:50:08.995Z,7.60
2019-03-26T13:52:37.319Z,11.30
2019-03-26T13:55:07.231Z,7.93
2019-03-26T13:57:38.186Z,9.53
2019-03-26T14:00:09.371Z,8.13
2019-03-26T14:02:37.617Z,11.80
2019-03-26T14:05:25.405Z,13.00
2019-03-26T14:07:53.638Z,10.30
2019-03-26T14:10:22.706Z,7.07
2019-03-26T14:12:51.471Z,13.63
2019-03-26T14:15:19.715Z,11.07
2019-03-26T14:17:47.974Z,7.17
2019-03-26T14:20:16.334Z,8.27
2019-03-26T14:22:50.531Z,7.43
2019-03-26T14:25:18.828Z,8.00
2019-03-26T14:27:47.491Z,8.00
2019-03-26T14:30:15.789Z,10.30
2019-03-26T14:32:45.671Z,4.93
2019-03-26T14:35:13.947Z,8.93
2019-03-26T14:37:51.273Z,4.83
2019-03-26T14:40:12.166Z,6.47
2019-03-26T14:42:40.476Z,8.60
2019-03-26T14:45:08.759Z,9.50
2019-03-26T14:47:37.003Z,7.43
2019-03-26T14:50:06.115Z,9.10
2019-03-26T14:52:34.364Z,9.73
2019-03-26T14:55:02.610Z,11.73
2019-03-26T14:57:30.874Z,9.73
2019-03-26T14:59:59.115Z,7.40
2019-03-26T15:02:27.352Z,7.90
2019-03-26T15:04:56.017Z,8.63
2019-03-26T15:07:24.259Z,7.50
2019-03-26T15:09:52.498Z,8.53
2019-03-26T15:12:20.801Z,14.87
2019-03-26T15:14:49.031Z,9.87
2019-03-26T15:17:17.346Z,10.53
2019-03-26T15:19:48.569Z,13.83
2019-03-26T15:22:19.866Z,12.03
2019-03-26T15:24:48.106Z,10.87
2019-03-26T15:27:16.418Z,8.13
2019-03-26T15:29:45.012Z,10.17
2019-03-26T15:32:13.254Z,8.10
2019-03-26T15:34:41.571Z,9.00
2019-03-26T15:37:10.169Z,4.90
2019-03-26T15:39:38.410Z,5.97
2019-03-26T15:42:06.750Z,6.50
2019-03-26T15:44:36.838Z,4.93
2019-03-26T15:47:05.077Z,4.33
2019-03-26T15:49:33.347Z,5.27
2019-03-26T15:52:01.588Z,3.77
2019-03-26T15:54:31.568Z,3.10
2019-03-26T15:56:59.887Z,4.87
2019-03-26T15:59:28.143Z,7.03
2019-03-26T16:01:56.384Z,3.60
2019-03-26T16:04:24.652Z,4.00
2019-03-26T16:06:56.779Z,5.00
2019-03-26T16:09:33.815Z,4.30
2019-03-26T16:12:06.399Z,1.73
2019-03-26T16:14:43.573Z,4.87
2019-03-26T16:17:14.885Z,1.57
2019-03-26T16:19:44.765Z,2.30
2019-03-26T16:22:18.901Z,4.27
2019-03-26T16:24:48.788Z,4.10
2019-03-26T16:27:19.386Z,5.57
2019-03-26T16:29:47.738Z,2.00
2019-03-26T16:32:23.647Z,3.93
2019-03-26T16:34:51.890Z,5.50
2019-03-26T16:37:24.797Z,7.90
2019-03-26T16:40:06.421Z,6.27
2019-03-26T16:42:43.622Z,3.20
2019-03-26T16:45:14.545Z,1.60
2019-03-26T16:47:42.804Z,3.53
2019-03-26T16:50:17.242Z,8.17
2019-03-26T16:52:54.571Z,10.73
2019-03-26T16:55:41.622Z,2.00
2019-03-26T16:58:15.530Z,3.10
2019-03-26T17:00:47.083Z,2.63
2019-03-26T17:03:31.349Z,3.93
2019-03-26T17:05:57.796Z,4.57
2019-03-26T17:08:26.166Z,5.27
2019-03-26T17:11:00.191Z,3.53
2019-03-26T17:13:28.738Z,3.87
2019-03-26T17:16:01.666Z,4.53
2019-03-26T17:18:29.989Z,5.73
2019-03-26T17:20:58.562Z,2.03
2019-03-26T17:23:26.795Z,6.60
2019-03-26T17:25:55.043Z,4.97
2019-03-26T17:28:23.311Z,3.37
2019-03-26T17:30:51.560Z,3.90
2019-03-26T17:33:19.816Z,5.17
2019-03-26T17:35:48.257Z,6.27
2019-03-26T17:38:16.505Z,4.20
2019-03-26T17:40:44.732Z,6.57
2019-03-26T17:43:13.014Z,6.70
2019-03-26T17:45:43.191Z,5.03
2019-03-26T17:48:11.427Z,5.37
2019-03-26T17:50:40.060Z,4.43
2019-03-26T17:53:08.302Z,2.70
2019-03-26T17:55:39.249Z,2.83
2019-03-26T17:58:07.831Z,2.17
2019-03-26T18:00:43.176Z,5.20
2019-03-26T18:03:25.178Z,4.57
2019-03-26T18:05:41.454Z,5.13
2019-03-26T18:08:09.708Z,3.10
2019-03-26T18:10:37.945Z,2.00
2019-03-26T18:13:06.913Z,2.97
2019-03-26T18:15:35.159Z,4.03
2019-03-26T18:18:03.403Z,4.30
2019-03-26T18:20:33.162Z,4.93
2019-03-26T18:23:01.472Z,4.33
2019-03-26T18:25:31.334Z,5.83
2019-03-26T18:27:59.604Z,3.43
2019-03-26T18:30:36.875Z,8.37
2019-03-26T18:33:05.547Z,7.17
2019-03-26T18:35:33.872Z,5.30
2019-03-26T18:38:02.110Z,9.30
2019-03-26T18:40:39.920Z,7.23
2019-03-26T18:43:06.840Z,10.17
2019-03-26T18:45:35.093Z,7.93
2019-03-26T18:48:03.363Z,5.10
2019-03-26T18:50:31.594Z,5.77
2019-03-26T18:52:59.843Z,9.97
2019-03-26T18:55:28.801Z,9.00
2019-03-26T18:57:57.048Z,21.43
2019-03-26T19:00:35.562Z,39.43
2019-03-26T19:03:03.947Z,11.07
2019-03-26T19:05:32.186Z,12.63
2019-03-26T19:08:00.469Z,15.27
2019-03-26T19:10:35.725Z,15.73
2019-03-26T19:13:18.001Z,15.77
2019-03-26T19:15:35.913Z,14.67
2019-03-26T19:18:04.250Z,9.80
2019-03-26T19:20:38.371Z,14.17
2019-03-26T19:23:06.683Z,9.40
2019-03-26T19:25:34.965Z,11.90
2019-03-26T19:28:03.609Z,12.50
2019-03-26T19:30:32.223Z,9.83
2019-03-26T19:33:02.102Z,19.80
2019-03-26T19:35:30.339Z,13.60
2019-03-26T19:37:58.627Z,18.67
2019-03-26T19:40:26.907Z,20.60
2019-03-26T19:42:55.138Z,16.63
2019-03-26T19:45:23.388Z,24.10
2019-03-26T19:47:51.653Z,18.97
2019-03-26T19:50:19.904Z,20.03
2019-03-26T19:52:48.571Z,29.77
2019-03-26T19:55:16.816Z,26.07
2019-03-26T19:57:45.055Z,28.03
2019-03-26T20:00:15.593Z,23.30
2019-03-26T20:02:43.911Z,27.53
2019-03-26T20:05:12.168Z,25.70
2019-03-26T20:07:44.216Z,35.90
2019-03-26T20:10:12.798Z,27.33
2019-03-26T20:12:41.037Z,27.40
2019-03-26T20:15:13.119Z,37.83
2019-03-26T20:17:41.109Z,26.40
2019-03-26T20:20:09.423Z,31.90
2019-03-26T20:22:38.378Z,31.63
2019-03-26T20:25:06.690Z,21.87
2019-03-26T20:27:34.937Z,25.43
2019-03-26T20:30:03.988Z,27.67
2019-03-26T20:32:44.615Z,27.83
2019-03-26T20:35:23.508Z,27.17
2019-03-26T20:38:07.306Z,27.43
2019-03-26T20:40:38.649Z,26.70
2019-03-26T20:43:06.887Z,27.50
2019-03-26T20:45:35.406Z,18.83
2019-03-26T20:48:03.703Z,25.50
2019-03-26T20:50:31.951Z,27.13
2019-03-26T20:53:00.557Z,28.73
2019-03-26T20:55:33.229Z,24.50
2019-03-26T20:58:01.794Z,27.87
2019-03-26T21:00:38.262Z,38.53
2019-03-26T21:03:06.780Z,28.83
2019-03-26T21:05:35.109Z,23.40
2019-03-26T21:08:06.474Z,27.60
2019-03-26T21:10:34.816Z,27.27
2019-03-26T21:13:03.072Z,25.00
2019-03-26T21:15:31.337Z,25.73
2019-03-26T21:17:59.592Z,33.77
2019-03-26T21:20:27.835Z,23.87
2019-03-26T21:22:56.082Z,27.83
2019-03-26T21:25:24.735Z,29.00
2019-03-26T21:27:53.302Z,21.80
2019-03-26T21:30:21.574Z,32.73
2019-03-26T21:32:49.827Z,23.07
2019-03-26T21:35:18.066Z,50.27
2019-03-26T21:37:46.346Z,34.13
2019-03-26T21:40:14.807Z,28.00
2019-03-26T21:42:43.056Z,28.67
2019-03-26T21:45:22.166Z,28.97
2019-03-26T21:47:52.099Z,25.03
2019-03-26T21:50:21.988Z,23.87
2019-03-26T21:52:50.258Z,21.93
2019-03-26T21:55:20.708Z,30.60
2019-03-26T21:57:56.212Z,23.83
2019-03-26T22:00:26.186Z,33.60
2019-03-26T22:02:54.869Z,27.57
2019-03-26T22:05:23.250Z,22.00
2019-03-26T22:07:51.599Z,24.83
2019-03-26T22:10:20.245Z,26.27
2019-03-26T22:12:48.478Z,30.80
2019-03-26T22:15:16.771Z,34.03
2019-03-26T22:17:46.651Z,30.37
2019-03-26T22:20:14.893Z,35.53
2019-03-26T22:22:43.162Z,28.13
2019-03-26T22:25:12.510Z,21.17
2019-03-26T22:27:40.739Z,28.93
2019-03-26T22:30:09.753Z,33.87
2019-03-26T22:32:37.992Z,31.13
2019-03-26T22:35:08.976Z,30.20
2019-03-26T22:37:37.247Z,19.23
2019-03-26T22:40:07.119Z,37.30
2019-03-26T22:42:35.386Z,28.47
2019-03-26T22:45:06.584Z,22.03
2019-03-26T22:47:43.898Z,22.93
2019-03-26T22:50:13.103Z,16.77
2019-03-26T22:52:41.342Z,24.50
2019-03-26T22:55:09.798Z,25.83
2019-03-26T22:57:38.747Z,16.57
2019-03-26T23:00:10.567Z,29.67
2019-03-26T23:02:38.879Z,16.33
2019-03-26T23:05:08.287Z,20.70
2019-03-26T23:07:36.598Z,22.23
2019-03-26T23:10:05.603Z,19.20
2019-03-26T23:12:33.863Z,19.87
2019-03-26T23:15:02.111Z,26.63
2019-03-26T23:17:30.697Z,33.47
2019-03-26T23:19:59.327Z,32.27
2019-03-26T23:22:27.585Z,15.63
2019-03-26T23:24:55.850Z,21.77
2019-03-26T23:27:24.620Z,19.97
2019-03-26T23:29:52.858Z,21.07
2019-03-26T23:32:21.116Z,21.77
2019-03-26T23:34:49.375Z,20.20
2019-03-26T23:37:23.560Z,22.90
2019-03-26T23:39:51.802Z,24.50
2019-03-26T23:42:20.131Z,26.43
2019-03-26T23:44:57.777Z,18.37
2019-03-26T23:47:18.346Z,20.90
2019-03-26T23:49:46.618Z,19.40
2019-03-26T23:52:14.853Z,16.00
2019-03-26T23:54:43.089Z,16.83
2019-03-26T23:57:11.336Z,22.53
2019-03-26T23:59:39.570Z,23.50
